Time;durP1;ratioP1;P1;durP2;ratioP2;P2;SDS_P1;SDS_P2;PMS_P1;PMS_P2;Temp;Humidity;BMP_temperature;BMP_pressure;BME280_temperature;BME280_humidity;BME280_pressure;Samples;Min_cycle;Max_cycle;Signal;HPM_P1;HPM_P2
2022/09/09 00:02:23;;;;;;;15.90;8.00;;;;;;;15.36;83.43;101042.66;107584;1247;61748;-76
2022/09/09 00:05:16;;;;;;;11.60;8.50;;;;;;;15.36;83.27;101045.11;107588;1246;72144;-76
2022/09/09 00:07:54;;;;;;;12.20;8.30;;;;;;;15.31;83.54;101040.61;107609;1246;72246;-76
2022/09/09 00:10:41;;;;;;;14.40;7.90;;;;;;;15.28;83.51;101039.64;107502;1246;71274;-77
2022/09/09 00:13:37;;;;;;;12.80;8.20;;;;;;;15.25;83.06;101034.48;107748;1247;71124;-77
2022/09/09 00:16:31;;;;;;;11.30;8.30;;;;;;;15.23;83.21;101036.24;107667;1246;59665;-77
2022/09/09 00:19:09;;;;;;;14.90;9.30;;;;;;;15.21;83.63;101037.18;107634;1246;59519;-77
2022/09/09 00:21:48;;;;;;;8.40;7.50;;;;;;;15.18;83.58;101032.34;107735;1246;73592;-79
2022/09/09 00:24:26;;;;;;;11.90;7.60;;;;;;;15.17;83.56;101028.21;107782;1246;70839;-76
2022/09/09 00:27:29;;;;;;;15.30;9.40;;;;;;;15.17;83.08;101030.32;107719;1246;67913;-77
2022/09/09 00:30:22;;;;;;;15.00;8.80;;;;;;;15.20;82.91;101029.67;107483;1247;71046;-77
2022/09/09 00:33:00;;;;;;;14.40;9.20;;;;;;;15.23;83.14;101030.15;107639;1246;61369;-77
2022/09/09 00:35:44;;;;;;;12.20;8.80;;;;;;;15.25;83.10;101028.54;107692;1246;61219;-76
2022/09/09 00:38:23;;;;;;;14.60;9.20;;;;;;;15.26;82.94;101027.73;107353;1247;74357;-77
2022/09/09 00:41:10;;;;;;;12.70;8.40;;;;;;;15.30;82.39;101027.56;107288;1247;71457;-78
2022/09/09 00:43:41;;;;;;;13.60;8.40;;;;;;;15.31;82.62;101024.80;107314;1247;69149;-76
2022/09/09 00:46:16;;;;;;;13.00;8.90;;;;;;;15.30;82.27;101033.85;107420;1247;71335;-77
2022/09/09 00:49:38;;;;;;;16.70;9.50;;;;;;;15.31;82.35;101023.80;107469;1246;59138;-76
2022/09/09 00:52:47;;;;;;;16.70;8.40;;;;;;;15.30;82.23;101021.25;107557;1246;61044;-74
2022/09/09 00:55:43;;;;;;;17.10;9.00;;;;;;;15.28;82.66;101027.54;106089;1246;1798323;-80
2022/09/09 00:58:12;;;;;;;12.90;8.70;;;;;;;15.25;82.67;101024.48;107751;1246;71825;-77
2022/09/09 01:00:51;;;;;;;12.50;8.40;;;;;;;15.23;82.94;101023.48;107681;1246;69589;-78
2022/09/09 01:04:02;;;;;;;15.30;8.50;;;;;;;15.18;82.89;101024.28;107343;1247;71797;-78
2022/09/09 01:06:33;;;;;;;12.80;8.30;;;;;;;15.14;83.09;101033.39;107528;1246;61056;-79
2022/09/09 01:09:42;;;;;;;12.90;9.00;;;;;;;15.09;83.27;101028.69;107532;1246;60117;-77
2022/09/09 01:12:26;;;;;;;14.50;9.40;;;;;;;15.05;83.56;101020.44;107556;1246;74447;-78
2022/09/09 01:15:10;;;;;;;15.60;8.50;;;;;;;14.99;83.79;101023.10;107333;1246;70445;-76
2022/09/09 01:18:21;;;;;;;16.30;8.90;;;;;;;14.97;84.02;101024.70;107517;1247;68698;-77
2022/09/09 01:21:09;;;;;;;14.40;8.80;;;;;;;14.97;84.02;101026.93;106965;1252;70346;-78
2022/09/09 01:24:13;;;;;;;12.20;9.00;;;;;;;14.97;84.14;101026.94;107249;1246;59820;-73
2022/09/09 01:27:02;;;;;;;13.50;9.10;;;;;;;14.95;84.03;101029.40;107450;1246;60693;-79
2022/09/09 01:29:33;;;;;;;11.20;8.10;;;;;;;14.94;83.98;101028.95;107235;1246;72560;-81
2022/09/09 01:32:40;;;;;;;11.60;9.10;;;;;;;14.88;84.07;101026.32;107408;1249;71118;-78
2022/09/09 01:36:02;;;;;;;10.60;8.30;;;;;;;14.92;84.24;101031.91;107838;1248;69927;-78
2022/09/09 01:38:37;;;;;;;16.20;8.60;;;;;;;14.91;84.24;101030.77;108489;1247;74334;-77
2022/09/09 01:41:06;;;;;;;11.50;7.80;;;;;;;14.92;84.43;101030.52;109252;1247;62201;-77
2022/09/09 01:43:44;;;;;;;14.80;8.20;;;;;;;14.93;84.11;101029.42;108024;1247;59437;-80
2022/09/09 01:46:14;;;;;;;11.90;8.00;;;;;;;14.94;83.98;101027.38;107599;1247;71683;-79
2022/09/09 01:48:45;;;;;;;13.00;8.30;;;;;;;14.97;83.88;101022.39;107664;1246;72263;-79
2022/09/09 01:51:14;;;;;;;12.10;8.10;;;;;;;14.99;83.62;101021.36;107656;1245;70955;-79
2022/09/09 01:53:44;;;;;;;12.50;8.20;;;;;;;14.98;83.64;101025.42;107852;1244;73924;-78
2022/09/09 01:57:23;;;;;;;13.60;8.10;;;;;;;14.98;83.84;101023.70;107717;1244;62640;-78
2022/09/09 02:00:09;;;;;;;11.90;8.10;;;;;;;14.96;83.42;101021.09;106899;1247;60055;-77
2022/09/09 02:03:00;;;;;;;12.40;8.60;;;;;;;14.93;82.57;101021.46;107743;1244;72486;-79
2022/09/09 02:06:14;;;;;;;14.10;9.30;;;;;;;14.86;83.40;101016.29;107438;1247;69474;-79
2022/09/09 02:08:53;;;;;;;14.30;8.70;;;;;;;14.79;84.34;101010.40;107597;1244;69772;-80
2022/09/09 02:11:25;;;;;;;12.20;8.40;;;;;;;14.78;84.33;101014.39;107547;1247;72498;-80
2022/09/09 02:14:17;;;;;;;13.20;7.70;;;;;;;14.74;84.46;101015.73;107547;1244;62369;-78
2022/09/09 02:17:03;;;;;;;13.80;9.30;;;;;;;14.75;84.40;101016.39;107542;1245;61058;-79
2022/09/09 02:19:55;;;;;;;10.50;8.40;;;;;;;14.73;84.65;101012.36;107527;1245;73024;-80
2022/09/09 02:22:34;;;;;;;14.00;8.90;;;;;;;14.69;84.66;101010.95;107493;1246;70337;-77
2022/09/09 02:25:06;;;;;;;14.20;8.30;;;;;;;14.69;84.80;101013.94;107462;1244;70693;-78
2022/09/09 02:27:35;;;;;;;13.00;8.50;;;;;;;14.66;84.95;101004.19;107736;1246;72703;-79
2022/09/09 02:30:05;;;;;;;15.30;9.10;;;;;;;14.64;84.85;100998.41;107810;1244;60367;-81
2022/09/09 02:32:42;;;;;;;12.60;8.50;;;;;;;14.61;85.18;100988.98;107632;1246;59345;-81
2022/09/09 02:35:21;;;;;;;10.00;8.10;;;;;;;14.60;85.09;100985.42;107636;1244;74407;-77
2022/09/09 02:37:53;;;;;;;14.30;8.80;;;;;;;14.63;85.00;100987.80;107505;1244;72119;-76
2022/09/09 02:40:23;;;;;;;15.70;9.20;;;;;;;14.65;84.11;100990.02;107695;1246;68295;-76
2022/09/09 02:42:59;;;;;;;13.70;8.30;;;;;;;14.72;83.97;100996.25;107898;1244;71209;-76
2022/09/09 02:45:50;;;;;;;12.00;8.40;;;;;;;14.77;83.98;100997.45;107872;1243;58999;-77
2022/09/09 02:48:30;;;;;;;14.80;8.90;;;;;;;14.81;83.72;101000.92;107485;1247;60292;-76
2022/09/09 02:51:17;;;;;;;11.50;8.00;;;;;;;14.83;83.48;101001.43;107701;1244;75153;-79
2022/09/09 02:54:18;;;;;;;12.40;8.30;;;;;;;14.86;83.38;101003.30;107552;1247;70215;-76
2022/09/09 02:56:54;;;;;;;13.30;8.80;;;;;;;14.88;83.83;101003.90;107524;1244;69865;-77
2022/09/09 02:59:27;;;;;;;12.10;8.50;;;;;;;14.88;82.81;101007.74;107680;1244;72318;-78
2022/09/09 03:01:56;;;;;;;10.30;7.90;;;;;;;14.82;83.39;101006.29;107949;1244;60344;-77
2022/09/09 03:04:25;;;;;;;12.70;8.90;;;;;;;14.78;83.78;101004.39;107766;1245;60168;-77
2022/09/09 03:06:54;;;;;;;11.50;8.00;;;;;;;14.76;83.95;101007.02;107784;1244;72161;-79
2022/09/09 03:09:23;;;;;;;12.50;8.40;;;;;;;14.75;84.26;101006.89;107768;1244;72262;-78
2022/09/09 03:11:53;;;;;;;10.90;8.30;;;;;;;14.75;84.29;101007.58;107764;1244;68313;-77
2022/09/09 03:14:26;;;;;;;13.70;8.20;;;;;;;14.75;84.18;101007.27;107646;1244;73564;-78
2022/09/09 03:16:57;;;;;;;10.90;8.70;;;;;;;14.75;84.35;101013.23;107701;1244;62581;-80
2022/09/09 03:19:27;;;;;;;12.90;8.40;;;;;;;14.75;84.30;101012.88;107747;1247;59553;-81
2022/09/09 03:21:56;;;;;;;14.70;9.20;;;;;;;14.75;84.43;101013.60;107768;1246;72516;-82
2022/09/09 03:24:25;;;;;;;14.60;9.30;;;;;;;14.73;84.90;101011.45;107664;1244;70716;-80
2022/09/09 03:26:55;;;;;;;23.70;9.20;;;;;;;14.70;84.76;101009.98;107796;1244;70007;-79
2022/09/09 03:29:24;;;;;;;18.50;12.10;;;;;;;14.68;84.86;101008.23;107600;1247;73329;-78
2022/09/09 03:31:55;;;;;;;11.80;7.70;;;;;;;14.65;84.59;101005.27;107764;1244;62165;-78
2022/09/09 03:34:24;;;;;;;13.80;7.50;;;;;;;14.64;84.63;101009.64;107254;1244;61749;-82
2022/09/09 03:36:52;;;;;;;17.80;12.00;;;;;;;14.63;84.93;101011.95;107442;1244;72469;-81
2022/09/09 03:39:21;;;;;;;14.10;8.50;;;;;;;14.65;84.91;101003.94;107717;1244;71056;-82
2022/09/09 03:41:50;;;;;;;19.50;9.10;;;;;;;14.66;84.88;101003.67;107564;1244;67910;-80
2022/09/09 03:44:19;;;;;;;12.80;8.20;;;;;;;14.65;84.57;100996.23;107617;1244;71173;-79
2022/09/09 03:46:48;;;;;;;13.20;9.40;;;;;;;14.65;84.55;100992.13;107535;1244;63121;-79
2022/09/09 03:49:16;;;;;;;12.20;7.70;;;;;;;14.68;84.46;100993.48;107489;1244;62926;-73
2022/09/09 03:51:45;;;;;;;18.60;8.90;;;;;;;14.71;83.99;100994.27;107673;1244;72169;-73
2022/09/09 03:54:14;;;;;;;13.00;8.30;;;;;;;14.75;83.84;100986.17;107906;1244;72201;-74
2022/09/09 03:56:43;;;;;;;15.50;8.90;;;;;;;14.82;83.81;100985.08;107711;1244;69295;-76
2022/09/09 03:59:14;;;;;;;19.90;9.20;;;;;;;14.90;83.68;100984.90;107712;1244;73938;-74
2022/09/09 04:01:43;;;;;;;18.30;10.00;;;;;;;14.97;83.44;100986.96;107723;1244;61493;-72
2022/09/09 04:04:12;;;;;;;14.90;9.00;;;;;;;15.06;83.67;100983.73;107464;1244;59706;-75
2022/09/09 04:06:41;;;;;;;18.30;8.70;;;;;;;15.19;83.22;100983.08;107782;1244;73247;-76
2022/09/09 04:09:10;;;;;;;15.30;9.10;;;;;;;15.34;82.86;100983.04;107702;1246;70342;-75
2022/09/09 04:11:39;;;;;;;17.40;10.00;;;;;;;15.49;82.69;100980.16;107616;1244;69573;-74
2022/09/09 04:14:08;;;;;;;15.90;8.90;;;;;;;15.64;82.17;100987.23;107820;1244;73808;-74
2022/09/09 04:16:37;;;;;;;14.30;9.50;;;;;;;15.78;81.63;100996.30;107748;1245;60303;-75
2022/09/09 04:19:07;;;;;;;14.40;9.80;;;;;;;15.94;81.04;100999.94;107904;1244;58917;-75
2022/09/09 04:21:36;;;;;;;12.20;9.00;;;;;;;16.09;80.44;101003.51;108111;1244;71667;-74
2022/09/09 04:24:07;;;;;;;16.80;8.80;;;;;;;16.24;79.84;101004.09;107838;1244;70348;-76
2022/09/09 04:26:37;;;;;;;14.40;8.20;;;;;;;16.40;79.34;101002.13;107921;1244;70524;-78
2022/09/09 04:29:07;;;;;;;16.60;9.30;;;;;;;16.52;78.94;101007.18;108302;1244;73746;-77
2022/09/09 04:31:37;;;;;;;13.80;9.00;;;;;;;16.60;79.01;101007.83;108018;1244;59579;-79
2022/09/09 04:34:06;;;;;;;17.20;8.90;;;;;;;16.68;78.56;101002.79;107749;1245;59490;-79
2022/09/09 04:36:35;;;;;;;13.60;8.70;;;;;;;16.74;78.27;100998.13;107786;1244;74437;-82
2022/09/09 04:39:06;;;;;;;17.80;9.30;;;;;;;16.74;77.97;100995.66;107795;1244;70686;-77
2022/09/09 04:41:35;;;;;;;13.80;7.90;;;;;;;16.80;77.58;101001.95;108141;1244;69753;-79
2022/09/09 04:44:05;;;;;;;15.50;8.70;;;;;;;16.86;77.42;101006.29;108134;1244;74605;-74
2022/09/09 04:46:34;;;;;;;20.90;8.20;;;;;;;16.91;77.26;101002.33;108085;1244;60974;-75
2022/09/09 04:49:03;;;;;;;15.30;8.40;;;;;;;16.95;77.42;100999.45;107709;1245;61746;-71
2022/09/09 04:51:32;;;;;;;14.80;8.80;;;;;;;16.99;76.95;100996.96;107881;1244;73115;-74
2022/09/09 04:54:01;;;;;;;15.40;9.00;;;;;;;17.00;77.07;100998.98;108038;1244;70383;-75
2022/09/09 04:56:29;;;;;;;16.00;8.90;;;;;;;17.01;77.02;100995.86;108099;1244;70960;-75
2022/09/09 04:58:59;;;;;;;16.90;8.50;;;;;;;17.06;77.00;101000.52;108827;1244;64198;-79
2022/09/09 05:01:36;;;;;;;16.10;8.60;;;;;;;17.12;76.81;101000.95;107950;1245;59607;-78
2022/09/09 05:04:05;;;;;;;15.40;9.00;;;;;;;17.20;76.45;101008.48;107929;1244;60020;-74
2022/09/09 05:06:36;;;;;;;12.80;8.60;;;;;;;17.26;75.99;101005.68;107678;1244;74513;-80
2022/09/09 05:09:05;;;;;;;14.10;8.50;;;;;;;17.32;75.55;101005.28;107892;1244;61423;-76
2022/09/09 05:11:36;;;;;;;16.90;8.10;;;;;;;17.36;75.29;100999.36;107829;1244;69790;-74
2022/09/09 05:14:46;;;;;;;15.00;7.70;;;;;;;17.51;75.09;100993.17;107848;1244;74734;-78
2022/09/09 05:17:16;;;;;;;14.80;8.00;;;;;;;17.65;74.67;100991.27;107734;1244;61880;-75
2022/09/09 05:19:45;;;;;;;20.50;9.10;;;;;;;17.78;74.37;100992.02;107937;1244;58947;-78
2022/09/09 05:22:20;;;;;;;17.40;7.90;;;;;;;17.87;73.32;100990.73;107905;1244;73642;-76
2022/09/09 05:24:50;;;;;;;16.40;8.00;;;;;;;17.98;72.93;100987.19;107691;1246;62013;-76
2022/09/09 05:27:19;;;;;;;15.70;8.10;;;;;;;18.16;72.90;100991.04;107669;1244;59126;-76
2022/09/09 05:29:48;;;;;;;10.80;7.30;;;;;;;18.25;72.46;100994.86;107778;1244;63312;-76
2022/09/09 05:32:17;;;;;;;12.50;6.90;;;;;;;18.33;72.00;100997.23;107759;1246;59556;-76
2022/09/09 05:34:48;;;;;;;14.30;6.70;;;;;;;18.45;71.77;100995.19;107923;1244;57750;-71
2022/09/09 05:37:18;;;;;;;12.50;7.60;;;;;;;18.52;71.36;100996.52;107890;1244;73664;-73
2022/09/09 05:39:47;;;;;;;10.10;6.50;;;;;;;18.61;71.03;100993.58;107740;1246;61249;-75
2022/09/09 05:42:17;;;;;;;11.50;6.90;;;;;;;18.70;70.66;100993.16;107879;1244;61777;-72
2022/09/09 05:44:46;;;;;;;13.30;6.90;;;;;;;18.81;70.04;100996.65;107931;1244;63649;-72
2022/09/09 05:47:15;;;;;;;11.50;7.60;;;;;;;18.88;69.84;100996.79;107647;1244;61625;-75
2022/09/09 05:49:44;;;;;;;14.60;6.90;;;;;;;19.00;69.44;100996.30;107930;1244;61749;-73
2022/09/09 05:52:13;;;;;;;11.70;7.90;;;;;;;19.12;69.06;100996.11;107721;1244;64246;-72
2022/09/09 05:54:43;;;;;;;16.80;8.40;;;;;;;19.24;68.65;100994.23;107698;1245;61491;-68
2022/09/09 05:57:11;;;;;;;15.90;7.50;;;;;;;19.33;68.08;100996.17;107785;1244;70580;-71
2022/09/09 05:59:40;;;;;;;11.60;7.30;;;;;;;19.42;67.50;100996.77;107764;1244;63667;-73
2022/09/09 06:02:09;;;;;;;13.60;8.00;;;;;;;19.52;67.04;100997.27;107721;1244;59457;-71
2022/09/09 06:04:38;;;;;;;13.70;7.10;;;;;;;19.66;66.80;100988.50;107736;1247;59383;-71
2022/09/09 06:07:08;;;;;;;11.80;7.50;;;;;;;19.87;66.55;100984.30;107704;1245;74428;-74
2022/09/09 06:09:42;;;;;;;13.10;7.40;;;;;;;19.93;65.65;100981.33;107893;1244;72651;-70
2022/09/09 06:12:26;;;;;;;9.50;7.30;;;;;;;20.02;65.09;100977.85;107989;1244;71630;-70
2022/09/09 06:14:54;;;;;;;16.60;7.10;;;;;;;20.18;64.98;100984.77;107867;1244;74323;-73
2022/09/09 06:17:23;;;;;;;13.30;7.30;;;;;;;20.23;64.81;100988.80;107810;1247;57967;-69
2022/09/09 06:19:53;;;;;;;11.90;7.40;;;;;;;20.25;64.25;100990.96;107818;1244;60322;-71
2022/09/09 06:22:22;;;;;;;15.70;7.40;;;;;;;20.33;64.22;100992.70;107855;1244;73152;-70
2022/09/09 06:24:51;;;;;;;18.30;6.90;;;;;;;20.41;64.36;100996.45;107843;1244;71484;-71
2022/09/09 06:27:19;;;;;;;10.50;6.50;;;;;;;20.63;63.59;100994.95;107725;1244;71383;-72
2022/09/09 06:29:48;;;;;;;11.70;6.80;;;;;;;20.71;63.10;100991.02;107813;1244;63830;-70
2022/09/09 06:32:17;;;;;;;11.90;7.30;;;;;;;20.71;62.61;100985.48;107761;1247;59660;-71
2022/09/09 06:34:46;;;;;;;16.80;7.40;;;;;;;20.92;62.56;100977.25;107971;1243;58978;-73
2022/09/09 06:37:15;;;;;;;9.80;6.20;;;;;;;20.99;62.59;100973.59;107791;1244;63198;-72
2022/09/09 06:39:48;;;;;;;;;;;;;;;20.96;62.45;100972.71;107784;1244;61663;-73
2022/09/09 06:42:17;;;;;;;10.80;6.00;;;;;;;20.85;63.09;100971.77;107920;1244;70567;-74
2022/09/09 06:45:04;;;;;;;8.20;6.20;;;;;;;20.96;62.50;100972.84;107924;1244;62892;-75
2022/09/09 06:48:08;;;;;;;12.30;6.00;;;;;;;21.13;62.59;100970.02;107769;1244;61354;-72
2022/09/09 06:50:37;;;;;;;11.60;6.20;;;;;;;21.29;62.24;100965.00;107856;1244;59097;-76
2022/09/09 06:53:06;;;;;;;8.60;5.60;;;;;;;21.36;61.69;100969.06;107883;1244;65313;-77
2022/09/09 06:55:35;;;;;;;11.10;5.70;;;;;;;21.51;61.44;100970.63;107883;1244;60881;-72
2022/09/09 06:58:08;;;;;;;11.30;5.80;;;;;;;21.65;60.85;100968.75;107880;1244;70436;-75
2022/09/09 07:00:38;;;;;;;;;;;;;;;21.62;60.64;100966.34;107851;1244;74415;-74
2022/09/09 07:03:07;;;;;;;15.00;6.10;;;;;;;21.66;60.14;100965.78;108023;1244;60836;-75
2022/09/09 07:05:37;;;;;;;11.00;6.20;;;;;;;21.95;59.87;100964.89;107859;1247;58561;-75
2022/09/09 07:08:06;;;;;;;11.90;5.40;;;;;;;22.12;59.30;100963.61;107716;1244;73713;-72
2022/09/09 07:10:34;;;;;;;10.40;5.90;;;;;;;22.23;59.01;100966.79;107771;1244;72624;-75
2022/09/09 07:13:04;;;;;;;8.60;5.80;;;;;;;22.32;58.04;100972.45;107761;1246;60769;-72
2022/09/09 07:15:33;;;;;;;10.70;5.80;;;;;;;22.33;57.82;100975.13;107719;1245;63724;-75
2022/09/09 07:18:02;;;;;;;9.10;5.60;;;;;;;22.55;57.60;100975.50;107716;1244;59534;-75
2022/09/09 07:20:32;;;;;;;14.00;6.10;;;;;;;22.60;57.27;100975.88;107698;1246;59648;-74
2022/09/09 07:23:00;;;;;;;7.70;5.00;;;;;;;22.63;56.93;100981.14;107896;1244;74454;-77
2022/09/09 07:25:30;;;;;;;8.20;5.40;;;;;;;22.62;56.68;100983.40;107725;1246;63480;-76
2022/09/09 07:27:59;;;;;;;10.10;5.60;;;;;;;22.61;57.02;100974.60;107465;1247;61692;-75
2022/09/09 07:30:28;;;;;;;8.40;5.50;;;;;;;22.86;57.09;100975.00;107693;1245;63302;-79
2022/09/09 07:32:59;;;;;;;9.40;5.40;;;;;;;22.87;56.47;100972.10;107930;1244;60473;-74
2022/09/09 07:35:28;;;;;;;18.10;5.70;;;;;;;22.90;56.27;100970.95;107955;1244;59078;-74
2022/09/09 07:37:58;;;;;;;14.00;5.80;;;;;;;23.14;56.28;100964.55;107888;1244;63038;-75
2022/09/09 07:40:26;;;;;;;10.70;5.30;;;;;;;23.30;55.92;100956.22;107774;1244;63380;-75
2022/09/09 07:42:55;;;;;;;11.80;5.90;;;;;;;23.44;55.38;100955.38;107950;1243;59746;-74
2022/09/09 07:45:24;;;;;;;9.90;5.30;;;;;;;23.57;54.75;100957.31;107613;1244;74512;-77
2022/09/09 07:47:56;;;;;;;9.70;5.60;;;;;;;23.74;54.78;100954.14;107779;1244;61855;-74
2022/09/09 07:50:26;;;;;;;15.30;5.80;;;;;;;23.72;54.33;100953.14;107877;1243;60851;-76
2022/09/09 07:52:55;;;;;;;16.00;5.60;;;;;;;23.73;54.05;100961.76;107917;1244;74123;-76
2022/09/09 07:55:26;;;;;;;11.40;5.50;;;;;;;23.77;53.71;100968.04;107529;1244;72584;-73
2022/09/09 07:57:55;;;;;;;9.60;5.90;;;;;;;23.94;53.70;100970.52;107534;1244;71032;-76
2022/09/09 08:00:25;;;;;;;8.60;5.10;;;;;;;24.02;53.22;100969.08;107928;1244;63648;-78
2022/09/09 08:02:54;;;;;;;11.50;5.40;;;;;;;24.13;52.67;100964.73;107662;1244;59056;-79
2022/09/09 08:05:23;;;;;;;11.60;5.50;;;;;;;24.32;52.29;100954.37;107767;1245;58093;-76
2022/09/09 08:07:52;;;;;;;11.60;6.10;;;;;;;24.42;52.16;100954.70;107916;1244;64335;-78
2022/09/09 08:10:21;;;;;;;10.50;6.10;;;;;;;24.52;51.82;100959.58;107780;1244;61323;-77
2022/09/09 08:12:52;;;;;;;10.60;5.40;;;;;;;24.80;51.23;100961.46;108092;1244;69528;-76
2022/09/09 08:15:41;;;;;;;12.90;5.80;;;;;;;24.73;50.63;100959.81;107901;1246;74479;-72
2022/09/09 08:18:10;;;;;;;11.20;5.50;;;;;;;24.76;51.11;100957.20;108470;1243;59486;-74
2022/09/09 08:20:39;;;;;;;11.80;5.50;;;;;;;24.82;51.08;100956.81;107933;1244;60527;-78
2022/09/09 08:23:08;;;;;;;9.60;5.20;;;;;;;24.86;50.39;100953.79;107859;1244;63503;-74
2022/09/09 08:25:36;;;;;;;12.80;5.30;;;;;;;25.00;50.14;100955.75;107688;1247;72260;-73
2022/09/09 08:28:05;;;;;;;11.70;5.80;;;;;;;25.08;50.05;100961.64;107724;1246;61087;-76
2022/09/09 08:30:35;;;;;;;13.50;5.40;;;;;;;25.17;49.06;100958.84;107836;1244;73880;-75
2022/09/09 08:33:04;;;;;;;8.70;5.50;;;;;;;25.37;49.08;100961.11;107971;1244;59854;-77
2022/09/09 08:35:32;;;;;;;14.80;5.10;;;;;;;25.38;48.81;100958.83;107570;1244;61071;-71
2022/09/09 08:38:02;;;;;;;9.00;4.60;;;;;;;25.42;48.21;100956.10;107830;1247;74951;-77
2022/09/09 08:40:48;;;;;;;9.60;4.20;;;;;;;25.56;46.82;100954.95;107691;1244;72826;-76
2022/09/09 08:43:21;;;;;;;9.40;4.70;;;;;;;25.73;46.23;100952.85;107505;1244;70556;-75
2022/09/09 08:46:11;;;;;;;10.10;4.90;;;;;;;25.92;45.60;100951.11;107594;1244;62896;-75
2022/09/09 08:49:01;;;;;;;8.50;4.20;;;;;;;25.96;46.26;100946.83;107752;1244;61663;-75
2022/09/09 08:51:33;;;;;;;10.10;5.60;;;;;;;25.84;44.97;100945.75;107560;1244;59466;-73
2022/09/09 08:54:04;;;;;;;8.80;4.30;;;;;;;26.05;44.47;100950.02;107631;1244;73371;-77
2022/09/09 08:56:33;;;;;;;6.40;4.00;;;;;;;26.13;44.45;100949.13;107555;1244;71843;-75
2022/09/09 08:59:05;;;;;;;9.90;4.90;;;;;;;26.09;44.55;100946.86;107770;1244;70722;-78
2022/09/09 09:02:01;;;;;;;8.70;4.30;;;;;;;26.01;44.84;100945.70;107584;1244;73773;-78
2022/09/09 09:04:58;;;;;;;8.80;4.50;;;;;;;26.19;44.95;100947.25;107469;1246;61775;-77
2022/09/09 09:07:46;;;;;;;8.30;4.00;;;;;;;26.32;44.11;100950.39;107733;1244;60732;-76
2022/09/09 09:10:38;;;;;;;5.80;4.30;;;;;;;26.64;43.17;100948.32;107661;1244;74940;-76
2022/09/09 09:13:36;;;;;;;7.90;4.30;;;;;;;26.46;43.67;100947.70;107841;1244;73383;-77
2022/09/09 09:16:48;;;;;;;9.20;4.10;;;;;;;26.33;43.98;100946.64;107688;1244;59093;-75
2022/09/09 09:19:18;;;;;;;10.70;4.60;;;;;;;25.95;44.59;100941.22;107866;1244;62475;-76
2022/09/09 09:22:36;;;;;;;7.20;4.20;;;;;;;25.92;45.04;100936.07;107592;1246;61319;-74
2022/09/09 09:25:35;;;;;;;7.60;4.70;;;;;;;25.53;45.83;100930.99;107756;1244;60849;-76
2022/09/09 09:28:32;;;;;;;8.10;4.80;;;;;;;25.37;46.30;100930.35;107584;1244;65679;-77
2022/09/09 09:31:12;;;;;;;6.20;4.50;;;;;;;25.01;47.20;100927.47;107679;1245;61769;-74
2022/09/09 09:33:49;;;;;;;6.70;4.20;;;;;;;25.02;47.33;100926.40;107344;1247;59274;-77
2022/09/09 09:36:25;;;;;;;8.60;4.90;;;;;;;25.22;46.91;100925.75;107577;1247;63806;-74
2022/09/09 09:39:00;;;;;;;12.70;5.00;;;;;;;25.32;46.77;100926.60;107626;1244;59656;-75
2022/09/09 09:41:50;;;;;;;7.10;4.70;;;;;;;25.54;45.69;100926.71;107741;1246;58604;-78
2022/09/09 09:44:31;;;;;;;9.50;4.80;;;;;;;25.36;46.05;100923.35;107561;1246;64141;-76
2022/09/09 09:47:21;;;;;;;12.70;4.80;;;;;;;25.39;46.07;100926.20;107893;1244;72231;-75
2022/09/09 09:50:20;;;;;;;9.80;4.40;;;;;;;25.52;45.60;100929.97;107733;1244;71163;-76
2022/09/09 09:53:05;;;;;;;9.00;4.80;;;;;;;25.43;45.50;100936.41;107846;1244;75400;-79
2022/09/09 09:55:36;;;;;;;8.50;4.80;;;;;;;25.57;44.81;100935.95;107746;1244;60901;-76
2022/09/09 09:58:15;;;;;;;6.90;4.20;;;;;;;25.62;44.63;100941.71;107800;1244;57930;-74
2022/09/09 10:00:52;;;;;;;6.50;4.10;;;;;;;25.51;44.45;100944.73;107603;1246;63056;-73
2022/09/09 10:03:31;;;;;;;8.10;5.00;;;;;;;25.17;45.40;100947.48;107763;1244;70703;-75
2022/09/09 10:06:01;;;;;;;8.90;4.60;;;;;;;25.13;45.66;100948.34;107953;1244;59561;-78
2022/09/09 10:08:46;;;;;;;6.80;4.10;;;;;;;25.06;45.72;100955.09;107796;1244;72046;-81
2022/09/09 10:11:47;;;;;;;8.90;4.80;;;;;;;24.99;46.03;100953.89;107845;1247;61847;-81
2022/09/09 10:14:42;;;;;;;9.60;5.00;;;;;;;24.92;46.43;100957.45;107830;1244;62170;-83
2022/09/09 10:17:31;;;;;;;9.80;4.80;;;;;;;24.94;46.62;100957.08;107908;1244;64063;-80
2022/09/09 10:20:09;;;;;;;7.40;4.60;;;;;;;24.88;46.98;100957.46;107747;1246;61657;-81
2022/09/09 10:22:45;;;;;;;9.50;4.50;;;;;;;24.96;46.89;100956.71;107928;1246;59526;-86
2022/09/09 10:25:50;;;;;;;11.60;4.90;;;;;;;24.84;47.29;100959.37;107968;1244;63835;-88
2022/09/09 10:28:41;;;;;;;10.40;4.80;;;;;;;24.79;47.48;100965.47;108160;1246;59761;-85
2022/09/09 10:31:39;;;;;;;7.70;4.70;;;;;;;24.78;47.84;100965.17;108192;1244;59270;-88
2022/09/09 10:35:17;;;;;;;10.20;4.40;;;;;;;24.78;47.73;100969.05;108282;1244;63074;-87
2022/09/09 10:38:12;;;;;;;11.80;5.10;;;;;;;24.69;47.83;100974.33;107501;1254;60894;-86
2022/09/09 10:41:05;;;;;;;10.00;4.10;;;;;;;24.73;48.02;100973.45;107555;1252;69669;-86
2022/09/09 10:43:56;;;;;;;7.10;4.60;;;;;;;24.67;48.10;100974.33;107875;1244;63671;-85
2022/09/09 10:47:16;;;;;;;8.70;5.20;;;;;;;24.64;48.78;100974.80;108070;1244;60447;-87
2022/09/09 10:50:03;;;;;;;8.30;4.80;;;;;;;24.69;48.99;100975.20;107938;1244;61986;-86
2022/09/09 10:52:56;;;;;;;7.90;5.20;;;;;;;24.53;50.39;100976.09;107986;1244;75058;-87
2022/09/09 10:55:35;;;;;;;7.70;4.90;;;;;;;24.36;50.86;100977.66;107977;1244;61610;-75
2022/09/09 10:58:07;;;;;;;8.60;5.50;;;;;;;24.18;52.16;100978.02;107904;1245;62002;-78
2022/09/09 11:00:51;;;;;;;10.90;5.80;;;;;;;24.01;54.52;100977.23;107938;1244;73153;-79
2022/09/09 11:03:33;;;;;;;10.30;5.70;;;;;;;23.96;55.82;100974.16;107975;1243;59029;-81
2022/09/09 11:06:19;;;;;;;7.30;6.00;;;;;;;23.91;55.53;100976.42;107868;1244;60389;-79
2022/09/09 11:08:49;;;;;;;10.30;6.00;;;;;;;23.92;56.25;100970.51;107814;1244;75027;-78
2022/09/09 11:11:54;;;;;;;8.30;6.00;;;;;;;23.92;57.95;100972.75;107874;1244;71591;-78
2022/09/09 11:14:43;;;;;;;10.50;6.20;;;;;;;23.87;58.41;100962.66;107739;1244;71136;-79
2022/09/09 11:17:20;;;;;;;9.10;6.30;;;;;;;23.94;58.30;100965.11;107787;1244;64790;-77
2022/09/09 11:19:49;;;;;;;8.90;5.70;;;;;;;24.04;58.85;100958.34;108383;1246;59642;-77
2022/09/09 11:22:55;;;;;;;7.10;5.20;;;;;;;23.96;56.97;100954.78;107892;1244;59497;-83
2022/09/09 11:25:37;;;;;;;8.40;6.10;;;;;;;24.01;56.69;100948.98;107670;1244;72343;-80
2022/09/09 11:28:45;;;;;;;8.30;6.20;;;;;;;24.09;57.16;100949.76;107763;1244;62124;-78
2022/09/09 11:31:41;;;;;;;10.30;5.80;;;;;;;24.08;56.48;100950.08;107769;1244;68730;-82
2022/09/09 11:34:33;;;;;;;8.80;6.50;;;;;;;24.25;56.24;100948.77;108173;1244;62874;-79
2022/09/09 11:37:04;;;;;;;8.10;6.00;;;;;;;24.44;56.61;100948.76;109070;1244;60222;-78
2022/09/09 11:40:37;;;;;;;8.20;5.80;;;;;;;24.49;55.40;100945.74;109223;1244;59638;-75
2022/09/09 11:43:28;;;;;;;10.10;6.30;;;;;;;24.72;55.82;100941.23;107843;1244;63833;-81
2022/09/09 11:46:02;;;;;;;7.80;5.90;;;;;;;24.83;55.71;100939.92;107774;1244;60953;-81
2022/09/09 11:48:45;;;;;;;7.80;5.80;;;;;;;24.91;55.02;100932.61;107686;1247;60013;-79
2022/09/09 11:51:19;;;;;;;;;;;;;;;24.90;54.77;100930.27;107929;1244;74008;-78
2022/09/09 11:54:16;;;;;;;9.80;6.00;;;;;;;24.90;54.17;100926.59;107797;1247;59568;-80
2022/09/09 11:56:46;;;;;;;12.80;6.60;;;;;;;24.92;53.46;100920.37;107581;1246;60653;-79
2022/09/09 11:59:33;;;;;;;12.90;9.30;;;;;;;24.84;54.84;100911.73;107666;1244;63655;-78
2022/09/09 12:02:26;;;;;;;10.80;7.20;;;;;;;24.88;54.50;100916.73;107751;1244;71404;-82
2022/09/09 12:05:00;;;;;;;10.10;6.60;;;;;;;25.04;54.17;100910.45;107945;1244;60367;-82